Time;durP1;ratioP1;P1;durP2;ratioP2;P2;SDS_P1;SDS_P2;PMS_P1;PMS_P2;Temp;Humidity;BMP_temperature;BMP_pressure;BME280_temperature;BME280_humidity;BME280_pressure;Samples;Min_cycle;Max_cycle;Signal;HPM_P1;HPM_P2
2021/09/09 00:03:01;;;;;;;;;;;19.00;89.30;;;;;;5029641;28;19967;-51
2021/09/09 00:06:05;;;;;;;;;;;18.90;89.80;;;;;;5029026;28;19913;-52
2021/09/09 00:09:13;;;;;;;;;;;19.00;90.00;;;;;;5028802;28;19909;-52
2021/09/09 00:12:17;;;;;;;;;;;19.00;90.00;;;;;;5029272;28;19920;-51
2021/09/09 00:15:21;;;;;;;;;;;19.00;90.20;;;;;;5028958;28;20022;-54
2021/09/09 00:18:26;;;;;;;;;;;19.00;90.40;;;;;;5031798;28;20299;-51
2021/09/09 00:21:32;;;;;;;;;;;18.90;90.50;;;;;;5033115;28;19924;-51
2021/09/09 00:24:47;;;;;;;;;;;18.80;90.70;;;;;;5034029;28;19932;-51
2021/09/09 00:27:52;;;;;;;;;;;18.80;90.90;;;;;;5032481;28;19920;-51
2021/09/09 00:30:57;;;;;;;;;;;18.70;91.30;;;;;;5032568;28;19916;-52
2021/09/09 00:34:02;;;;;;;;;;;18.70;91.30;;;;;;5033783;28;20452;-52
2021/09/09 00:37:14;;;;;;;;;;;18.70;91.40;;;;;;5032827;28;19916;-51
2021/09/09 00:40:18;;;;;;;;;;;18.70;91.40;;;;;;5031504;28;19924;-51
2021/09/09 00:43:22;;;;;;;;;;;18.50;92.10;;;;;;5033708;28;19909;-52
2021/09/09 00:46:26;;;;;;;;;;;18.30;92.90;;;;;;5032557;28;19909;-53
2021/09/09 00:49:31;;;;;;;;;;;18.30;93.20;;;;;;5032009;28;19920;-52
2021/09/09 00:52:35;;;;;;;;;;;18.20;93.50;;;;;;5032241;28;19921;-53
2021/09/09 00:55:41;;;;;;;;;;;18.20;93.60;;;;;;5032816;28;19944;-51
2021/09/09 00:58:45;;;;;;;;;;;18.20;93.60;;;;;;5031755;28;19916;-51
2021/09/09 01:01:49;;;;;;;;;;;18.20;93.90;;;;;;5032637;28;19932;-52
2021/09/09 01:04:53;;;;;;;;;;;18.20;94.00;;;;;;5033189;28;20119;-50
2021/09/09 01:07:58;;;;;;;;;;;18.20;94.10;;;;;;5031582;28;19916;-51
2021/09/09 01:11:03;;;;;;;;;;;18.10;94.30;;;;;;5031657;28;19931;-55
2021/09/09 01:14:12;;;;;;;;;;;18.10;94.60;;;;;;5032784;28;19924;-52
2021/09/09 01:17:17;;;;;;;;;;;18.10;95.00;;;;;;5031385;28;20323;-52
2021/09/09 01:20:21;;;;;;;;;;;18.10;95.40;;;;;;5031175;28;19912;-51
2021/09/09 01:23:25;;;;;;;;;;;18.00;95.80;;;;;;5032751;28;20375;-50
2021/09/09 01:26:30;;;;;;;;;;;18.10;95.90;;;;;;5030907;28;19916;-50
2021/09/09 01:29:39;;;;;;;;;;;18.10;96.00;;;;;;5030909;28;19964;-50
2021/09/09 01:32:43;;;;;;;;;;;18.00;96.10;;;;;;5032200;28;19916;-53
2021/09/09 01:35:47;;;;;;;;;;;17.90;96.70;;;;;;5031297;28;19995;-52
2021/09/09 01:38:51;;;;;;;;;;;17.80;97.00;;;;;;5030871;28;20390;-51
2021/09/09 01:41:56;;;;;;;;;;;17.80;97.30;;;;;;5031527;28;19916;-53
2021/09/09 01:45:00;;;;;;;;;;;17.80;97.40;;;;;;5032330;28;19909;-51
2021/09/09 01:48:06;;;;;;;;;;;17.80;98.00;;;;;;5030638;28;19924;-51
2021/09/09 01:51:11;;;;;;;;;;;17.70;98.20;;;;;;5031276;28;19916;-54
2021/09/09 01:54:15;;;;;;;;;;;17.60;98.50;;;;;;5033289;28;19917;-51
2021/09/09 01:57:18;;;;;;;;;;;17.60;98.80;;;;;;5030706;28;19920;-51
2021/09/09 02:00:23;;;;;;;;;;;17.60;99.00;;;;;;5030641;28;19920;-51
2021/09/09 02:03:28;;;;;;;;;;;17.60;98.90;;;;;;5012019;28;19921;-53
2021/09/09 02:06:32;;;;;;;;;;;17.50;99.20;;;;;;5029768;28;19917;-51
2021/09/09 02:09:36;;;;;;;;;;;17.50;99.50;;;;;;5030250;28;19912;-51
2021/09/09 02:12:41;;;;;;;;;;;17.50;99.60;;;;;;5031316;28;19919;-51
2021/09/09 02:15:45;;;;;;;;;;;17.50;99.90;;;;;;5030846;28;20376;-52
2021/09/09 02:18:51;;;;;;;;;;;17.60;99.90;;;;;;5029976;28;19916;-50
2021/09/09 02:21:55;;;;;;;;;;;17.60;99.90;;;;;;5031272;28;19943;-52
2021/09/09 02:24:59;;;;;;;;;;;17.60;99.90;;;;;;5030442;28;19920;-51
2021/09/09 02:28:05;;;;;;;;;;;17.60;99.90;;;;;;5029766;28;19917;-51
2021/09/09 02:31:10;;;;;;;;;;;17.50;99.90;;;;;;5030508;28;19913;-52
2021/09/09 02:34:14;;;;;;;;;;;17.40;99.90;;;;;;5031133;28;19920;-51
2021/09/09 02:37:18;;;;;;;;;;;17.40;99.90;;;;;;5029965;28;19920;-51
2021/09/09 02:40:22;;;;;;;;;;;17.30;99.90;;;;;;5028634;28;19924;-52
2021/09/09 02:43:25;;;;;;;;;;;17.20;99.90;;;;;;5030841;28;19919;-51
2021/09/09 02:46:31;;;;;;;;;;;17.20;99.90;;;;;;5030066;28;19916;-51
2021/09/09 02:49:35;;;;;;;;;;;17.10;99.90;;;;;;5029482;28;19909;-51
2021/09/09 02:52:39;;;;;;;;;;;17.10;99.90;;;;;;5030670;28;19920;-52
2021/09/09 02:55:43;;;;;;;;;;;17.10;99.90;;;;;;5029443;28;19936;-51
2021/09/09 02:58:47;;;;;;;;;;;17.00;99.90;;;;;;5029068;28;19916;-52
2021/09/09 03:01:52;;;;;;;;;;;17.00;99.90;;;;;;5029544;28;20386;-50
2021/09/09 03:04:56;;;;;;;;;;;17.00;99.90;;;;;;5029939;28;19917;-51
2021/09/09 03:08:00;;;;;;;;;;;17.00;99.90;;;;;;5029531;28;19916;-50
2021/09/09 03:11:05;;;;;;;;;;;16.90;99.90;;;;;;5030278;28;19916;-50
2021/09/09 03:14:09;;;;;;;;;;;16.90;99.90;;;;;;5029837;28;20311;-51
2021/09/09 03:17:13;;;;;;;;;;;16.90;99.90;;;;;;5029124;28;19920;-57
2021/09/09 03:20:17;;;;;;;;;;;16.80;99.90;;;;;;5029944;28;19916;-54
2021/09/09 03:23:21;;;;;;;;;;;16.80;99.90;;;;;;5030385;28;19916;-52
2021/09/09 03:26:25;;;;;;;;;;;16.70;99.90;;;;;;5029182;28;20401;-53
2021/09/09 03:29:29;;;;;;;;;;;16.60;99.90;;;;;;5029214;28;20182;-52
2021/09/09 03:32:35;;;;;;;;;;;16.50;99.90;;;;;;5030124;28;20426;-51
2021/09/09 03:35:39;;;;;;;;;;;16.50;99.90;;;;;;5028970;28;19936;-50
2021/09/09 03:38:43;;;;;;;;;;;16.50;99.90;;;;;;5029819;28;20287;-51
2021/09/09 03:41:47;;;;;;;;;;;16.50;99.90;;;;;;5030229;28;19913;-51
2021/09/09 03:44:52;;;;;;;;;;;16.50;99.90;;;;;;5029233;28;19909;-51
2021/09/09 03:47:56;;;;;;;;;;;16.50;99.90;;;;;;5029273;28;19909;-51
2021/09/09 03:51:00;;;;;;;;;;;16.50;99.90;;;;;;5029448;28;20402;-50
2021/09/09 03:54:04;;;;;;;;;;;16.40;99.90;;;;;;5028834;28;19913;-51
2021/09/09 03:57:08;;;;;;;;;;;16.40;99.90;;;;;;5028919;28;20315;-51
2021/09/09 04:00:12;;;;;;;;;;;16.40;99.90;;;;;;5029694;28;19909;-51
2021/09/09 04:03:17;;;;;;;;;;;16.40;99.90;;;;;;5029374;28;19913;-50
2021/09/09 04:06:22;;;;;;;;;;;16.40;99.90;;;;;;5028650;28;19916;-51
2021/09/09 04:09:26;;;;;;;;;;;16.30;99.90;;;;;;5029359;28;19909;-50
2021/09/09 04:12:30;;;;;;;;;;;16.30;99.90;;;;;;5029364;28;19909;-52
2021/09/09 04:15:34;;;;;;;;;;;16.20;99.90;;;;;;5028391;28;20383;-51
2021/09/09 04:18:38;;;;;;;;;;;16.10;99.90;;;;;;5029568;28;19913;-57
2021/09/09 04:21:42;;;;;;;;;;;16.00;99.90;;;;;;5029047;28;20278;-51
2021/09/09 04:24:46;;;;;;;;;;;16.00;99.90;;;;;;5028820;28;19913;-51
2021/09/09 04:27:50;;;;;;;;;;;15.90;99.90;;;;;;5028899;28;19912;-55
2021/09/09 04:30:55;;;;;;;;;;;15.90;99.90;;;;;;5028092;28;19909;-51
2021/09/09 04:33:59;;;;;;;;;;;15.90;99.90;;;;;;5028150;28;20273;-52
2021/09/09 04:37:04;;;;;;;;;;;15.80;99.90;;;;;;5028937;28;19909;-54
2021/09/09 04:40:08;;;;;;;;;;;15.80;99.90;;;;;;5029205;28;20376;-55
2021/09/09 04:43:14;;;;;;;;;;;15.80;99.90;;;;;;5027995;28;20372;-50
2021/09/09 04:46:18;;;;;;;;;;;15.80;99.90;;;;;;5027963;28;19913;-51
2021/09/09 04:49:22;;;;;;;;;;;15.80;99.90;;;;;;5029668;28;19909;-51
2021/09/09 04:52:26;;;;;;;;;;;15.70;99.90;;;;;;5028508;28;19913;-54
2021/09/09 04:55:30;;;;;;;;;;;15.60;99.90;;;;;;5028315;28;19913;-50
2021/09/09 04:58:34;;;;;;;;;;;15.60;99.90;;;;;;5029232;28;19991;-55
2021/09/09 05:01:38;;;;;;;;;;;15.60;99.90;;;;;;5028108;28;20291;-51
2021/09/09 05:04:42;;;;;;;;;;;15.70;99.90;;;;;;5031327;28;19932;-50
2021/09/09 05:07:46;;;;;;;;;;;15.70;99.90;;;;;;5032736;28;19909;-51
2021/09/09 05:10:50;;;;;;;;;;;15.70;99.90;;;;;;5031743;28;19909;-52
2021/09/09 05:13:54;;;;;;;;;;;15.80;99.90;;;;;;5030612;28;19913;-54
2021/09/09 05:16:58;;;;;;;;;;;15.80;99.90;;;;;;5032340;28;19913;-52
2021/09/09 05:20:03;;;;;;;;;;;15.90;99.90;;;;;;5032229;28;19913;-55
2021/09/09 05:23:07;;;;;;;;;;;15.90;99.90;;;;;;5031336;28;20406;-52
2021/09/09 05:26:11;;;;;;;;;;;16.00;99.90;;;;;;5031733;28;19917;-52
2021/09/09 05:29:16;;;;;;;;;;;16.10;99.90;;;;;;5032378;28;19909;-52
2021/09/09 05:32:20;;;;;;;;;;;16.10;99.90;;;;;;5030422;28;19913;-52
2021/09/09 05:35:24;;;;;;;;;;;16.10;99.90;;;;;;5031289;28;19924;-52
2021/09/09 05:38:28;;;;;;;;;;;16.50;99.90;;;;;;5032265;28;20291;-51
2021/09/09 05:41:32;;;;;;;;;;;18.60;99.90;;;;;;5029696;28;19909;-53
2021/09/09 05:44:38;;;;;;;;;;;20.90;99.90;;;;;;5027393;28;19917;-54
2021/09/09 05:47:44;;;;;;;;;;;22.50;97.20;;;;;;5028266;28;19909;-53
2021/09/09 05:50:48;;;;;;;;;;;21.70;96.20;;;;;;5030974;28;20335;-53
2021/09/09 05:53:52;;;;;;;;;;;21.70;96.60;;;;;;5020948;28;19951;-51
2021/09/09 05:56:58;;;;;;;;;;;22.50;95.30;;;;;;5031865;28;20006;-52
2021/09/09 06:00:04;;;;;;;;;;;23.40;94.10;;;;;;5023589;28;19909;-54
2021/09/09 06:03:10;;;;;;;;;;;24.10;92.50;;;;;;5034695;28;20387;-52
2021/09/09 06:06:16;;;;;;;;;;;24.50;91.40;;;;;;5049864;28;19909;-53
2021/09/09 06:09:20;;;;;;;;;;;26.10;89.30;;;;;;5038520;28;19917;-51
2021/09/09 06:12:26;;;;;;;;;;;27.10;85.60;;;;;;5032262;28;20366;-51
2021/09/09 06:15:30;;;;;;;;;;;28.00;81.60;;;;;;5037168;28;19913;-52
2021/09/09 06:18:35;;;;;;;;;;;28.70;78.40;;;;;;5031261;28;19912;-52
2021/09/09 06:21:39;;;;;;;;;;;28.70;77.00;;;;;;5030832;28;19909;-51
2021/09/09 06:24:42;;;;;;;;;;;28.60;76.70;;;;;;5031437;28;19913;-52
2021/09/09 06:27:46;;;;;;;;;;;28.90;75.20;;;;;;5023059;28;19913;-52
2021/09/09 06:30:51;;;;;;;;;;;29.40;73.90;;;;;;5027668;28;20299;-51
2021/09/09 06:33:55;;;;;;;;;;;29.60;72.90;;;;;;5030533;28;19917;-51
2021/09/09 06:37:00;;;;;;;;;;;29.10;72.50;;;;;;5042018;28;19913;-51
2021/09/09 06:40:05;;;;;;;;;;;26.80;75.50;;;;;;5029447;28;19912;-57
2021/09/09 06:43:09;;;;;;;;;;;25.90;77.80;;;;;;5031090;28;19976;-51
2021/09/09 06:46:13;;;;;;;;;;;26.40;77.40;;;;;;5025307;28;19913;-52
2021/09/09 06:49:19;;;;;;;;;;;26.50;76.60;;;;;;5042646;28;19909;-51
2021/09/09 06:52:23;;;;;;;;;;;27.20;75.70;;;;;;5031043;28;19913;-49
2021/09/09 06:55:26;;;;;;;;;;;27.10;74.80;;;;;;5015655;28;19913;-56
2021/09/09 06:58:31;;;;;;;;;;;27.70;74.60;;;;;;5031129;28;19909;-51
2021/09/09 07:01:35;;;;;;;;;;;27.70;74.30;;;;;;5023978;28;19913;-51
2021/09/09 07:04:39;;;;;;;;;;;27.60;74.30;;;;;;5029789;28;19917;-53
2021/09/09 07:07:43;;;;;;;;;;;26.90;74.70;;;;;;5031232;28;20291;-51
2021/09/09 07:10:47;;;;;;;;;;;27.50;74.40;;;;;;5029579;28;20299;-57
2021/09/09 07:13:51;;;;;;;;;;;28.30;73.80;;;;;;5029007;28;19909;-52
2021/09/09 07:16:55;;;;;;;;;;;29.40;71.70;;;;;;5031368;28;20287;-51
2021/09/09 07:19:59;;;;;;;;;;;28.70;70.40;;;;;;5028440;28;19912;-51
2021/09/09 07:23:04;;;;;;;;;;;29.60;70.90;;;;;;5025635;28;20542;-52
2021/09/09 07:26:08;;;;;;;;;;;29.00;69.90;;;;;;5028244;28;19913;-52
2021/09/09 07:29:15;;;;;;;;;;;30.10;68.50;;;;;;5027243;28;20475;-52
2021/09/09 07:32:19;;;;;;;;;;;29.70;69.30;;;;;;5022431;28;19913;-52
2021/09/09 07:35:23;;;;;;;;;;;30.10;68.50;;;;;;5028701;28;19913;-51
2021/09/09 07:38:27;;;;;;;;;;;31.60;66.60;;;;;;5024032;28;19909;-51
2021/09/09 07:41:32;;;;;;;;;;;29.70;67.30;;;;;;5027205;28;19916;-50
2021/09/09 07:44:36;;;;;;;;;;;31.40;66.10;;;;;;5023432;28;19909;-50
2021/09/09 07:47:40;;;;;;;;;;;30.60;65.80;;;;;;5030759;28;20292;-51
2021/09/09 07:50:44;;;;;;;;;;;31.80;65.30;;;;;;5028462;28;19909;-50
2021/09/09 07:53:48;;;;;;;;;;;33.40;64.30;;;;;;5036544;28;20299;-50
2021/09/09 07:56:52;;;;;;;;;;;34.50;62.20;;;;;;5022332;28;19921;-52
2021/09/09 07:59:57;;;;;;;;;;;34.60;61.30;;;;;;5024842;28;19916;-50
2021/09/09 08:03:01;;;;;;;;;;;35.70;59.80;;;;;;5020548;28;19909;-54
2021/09/09 08:06:06;;;;;;;;;;;34.10;60.30;;;;;;5023816;28;19913;-55
2021/09/09 08:09:10;;;;;;;;;;;34.40;60.20;;;;;;5021835;28;21038;-52
2021/09/09 08:12:14;;;;;;;;;;;33.90;59.40;;;;;;5021652;28;20296;-52
2021/09/09 08:15:18;;;;;;;;;;;31.70;62.40;;;;;;5021747;28;19913;-52
2021/09/09 08:18:24;;;;;;;;;;;33.10;61.50;;;;;;5021997;28;19913;-52
2021/09/09 08:21:28;;;;;;;;;;;33.40;60.60;;;;;;5021622;28;19909;-53
2021/09/09 08:24:32;;;;;;;;;;;33.50;61.00;;;;;;5020492;28;19909;-53
2021/09/09 08:27:36;;;;;;;;;;;34.70;59.40;;;;;;5024118;28;19913;-53
2021/09/09 08:30:40;;;;;;;;;;;32.90;60.40;;;;;;5031112;28;19913;-54
2021/09/09 08:33:45;;;;;;;;;;;34.30;59.50;;;;;;5028399;28;19909;-52
2021/09/09 08:36:48;;;;;;;;;;;34.70;59.20;;;;;;5023249;28;19913;-52
2021/09/09 08:39:53;;;;;;;;;;;36.50;57.50;;;;;;5023508;28;19913;-53
2021/09/09 08:42:57;;;;;;;;;;;35.50;55.40;;;;;;5029031;28;19917;-54
2021/09/09 08:46:02;;;;;;;;;;;37.80;55.80;;;;;;5023733;28;19916;-53
2021/09/09 08:49:06;;;;;;;;;;;39.00;54.20;;;;;;5027482;28;19909;-51
2021/09/09 08:52:11;;;;;;;;;;;38.90;52.80;;;;;;5024750;28;19921;-54
2021/09/09 08:55:15;;;;;;;;;;;39.90;52.00;;;;;;5028080;28;19913;-52
2021/09/09 08:58:19;;;;;;;;;;;40.40;49.60;;;;;;5026787;28;19909;-52
2021/09/09 09:01:23;;;;;;;;;;;40.90;49.20;;;;;;5022107;28;19913;-57
2021/09/09 09:04:28;;;;;;;;;;;41.50;49.30;;;;;;5032259;28;20306;-55
2021/09/09 09:07:32;;;;;;;;;;;41.70;49.30;;;;;;5031859;28;20299;-55
2021/09/09 09:10:36;;;;;;;;;;;41.70;48.30;;;;;;5028025;28;19909;-54
2021/09/09 09:13:40;;;;;;;;;;;42.30;47.90;;;;;;5034299;28;19908;-53
2021/09/09 09:16:46;;;;;;;;;;;42.80;47.80;;;;;;5031697;28;19913;-52
2021/09/09 09:19:51;;;;;;;;;;;38.60;49.40;;;;;;5019097;28;19909;-52
2021/09/09 09:23:07;;;;;;;;;;;38.90;49.70;;;;;;5021907;28;19909;-57
2021/09/09 09:26:12;;;;;;;;;;;40.90;49.00;;;;;;5032237;28;20360;-54
2021/09/09 09:29:23;;;;;;;;;;;42.20;48.80;;;;;;5034508;28;19908;-54
2021/09/09 09:32:27;;;;;;;;;;;39.80;49.50;;;;;;5033460;28;19909;-53
2021/09/09 09:35:31;;;;;;;;;;;41.70;49.20;;;;;;5031797;28;19924;-54
2021/09/09 09:38:35;;;;;;;;;;;41.10;49.90;;;;;;5027023;28;19916;-53
2021/09/09 09:41:41;;;;;;;;;;;42.40;49.30;;;;;;5025204;28;19909;-53
2021/09/09 09:44:47;;;;;;;;;;;42.40;47.60;;;;;;5025897;28;19909;-53
2021/09/09 09:47:53;;;;;;;;;;;42.60;48.50;;;;;;5030066;28;19909;-52
2021/09/09 09:50:57;;;;;;;;;;;43.70;48.20;;;;;;5032008;28;19917;-55
2021/09/09 09:54:11;;;;;;;;;;;40.40;49.80;;;;;;5037815;28;19917;-56
2021/09/09 09:57:15;;;;;;;;;;;37.30;51.80;;;;;;5031592;28;19917;-55
2021/09/09 10:00:19;;;;;;;;;;;40.80;50.80;;;;;;5021130;28;19909;-55
2021/09/09 10:03:24;;;;;;;;;;;39.10;49.30;;;;;;5033727;28;20303;-56
2021/09/09 10:06:28;;;;;;;;;;;41.50;49.30;;;;;;5031329;28;19909;-51
2021/09/09 10:09:32;;;;;;;;;;;43.20;48.10;;;;;;5031633;28;19917;-52
2021/09/09 10:12:36;;;;;;;;;;;41.70;47.40;;;;;;5029314;28;20367;-52
2021/09/09 10:15:41;;;;;;;;;;;40.50;47.60;;;;;;5031173;28;19917;-52
2021/09/09 10:18:46;;;;;;;;;;;43.20;48.10;;;;;;5030047;28;20359;-53
2021/09/09 10:21:53;;;;;;;;;;;45.60;46.70;;;;;;5028316;28;20302;-57
2021/09/09 10:25:04;;;;;;;;;;;44.90;45.70;;;;;;5017087;28;19917;-52
2021/09/09 10:28:27;;;;;;;;;;;41.40;48.00;;;;;;5028159;28;20553;-55
2021/09/09 10:31:42;;;;;;;;;;;43.70;47.60;;;;;;5038458;28;19909;-56
2021/09/09 10:35:07;;;;;;;;;;;43.20;47.00;;;;;;5029720;28;19917;-54
2021/09/09 10:38:11;;;;;;;;;;;37.70;49.80;;;;;;5018544;28;20392;-56
2021/09/09 10:41:26;;;;;;;;;;;37.60;51.00;;;;;;5038081;28;19908;-53
2021/09/09 10:44:34;;;;;;;;;;;40.30;49.40;;;;;;5013532;28;19933;-56
2021/09/09 10:47:51;;;;;;;;;;;43.30;47.40;;;;;;5016049;28;19906;-52
2021/09/09 10:51:01;;;;;;;;;;;44.40;46.00;;;;;;5030338;28;19917;-52
2021/09/09 10:54:14;;;;;;;;;;;36.90;48.30;;;;;;5030881;28;20504;-57
2021/09/09 10:57:18;;;;;;;;;;;34.90;51.10;;;;;;5028396;28;19917;-53
2021/09/09 11:00:42;;;;;;;;;;;36.80;50.70;;;;;;5028228;28;19928;-56
2021/09/09 11:03:47;;;;;;;;;;;39.70;48.70;;;;;;5029107;28;19909;-53
2021/09/09 11:06:52;;;;;;;;;;;42.80;46.60;;;;;;5031271;28;19996;-52
2021/09/09 11:09:58;;;;;;;;;;;44.60;46.10;;;;;;5024891;28;19909;-53
2021/09/09 11:13:02;;;;;;;;;;;46.30;44.30;;;;;;5030471;28;19928;-56
2021/09/09 11:16:25;;;;;;;;;;;47.20;43.40;;;;;;5025818;28;19917;-54
2021/09/09 11:19:29;;;;;;;;;;;48.30;42.60;;;;;;5029571;28;19917;-54
2021/09/09 11:22:34;;;;;;;;;;;48.20;42.40;;;;;;5025280;28;19909;-56
2021/09/09 11:25:39;;;;;;;;;;;44.20;43.10;;;;;;5037837;28;19909;-54
2021/09/09 11:28:44;;;;;;;;;;;43.00;44.30;;;;;;5035943;28;19935;-53
2021/09/09 11:31:49;;;;;;;;;;;40.70;44.90;;;;;;5031254;28;19916;-56
2021/09/09 11:35:04;;;;;;;;;;;41.50;45.30;;;;;;5028191;28;19909;-57
2021/09/09 11:38:09;;;;;;;;;;;42.10;44.70;;;;;;5029712;28;19913;-54
2021/09/09 11:41:18;;;;;;;;;;;41.10;45.30;;;;;;5029944;28;19916;-57
2021/09/09 11:44:26;;;;;;;;;;;42.70;45.00;;;;;;5028664;28;19917;-56
2021/09/09 11:47:31;;;;;;;;;;;44.80;44.20;;;;;;5030921;28;19946;-52
2021/09/09 11:50:46;;;;;;;;;;;45.60;42.90;;;;;;5030367;28;19909;-53
2021/09/09 11:53:51;;;;;;;;;;;46.40;42.40;;;;;;5028202;28;19917;-55
2021/09/09 11:57:04;;;;;;;;;;;47.20;42.30;;;;;;5015732;28;19917;-55
2021/09/09 12:00:09;;;;;;;;;;;44.90;42.30;;;;;;5040192;28;19913;-53
2021/09/09 12:03:13;;;;;;;;;;;41.80;43.30;;;;;;5035651;28;19909;-54
2021/09/09 12:06:18;;;;;;;;;;;43.50;43.70;;;;;;5033190;28;19909;-55
2021/09/09 12:09:23;;;;;;;;;;;37.90;45.20;;;;;;5014542;28;19913;-53
2021/09/09 12:12:30;;;;;;;;;;;40.40;45.60;;;;;;5025132;28;19913;-56
2021/09/09 12:15:34;;;;;;;;;;;39.60;45.90;;;;;;5047553;28;19913;-54
2021/09/09 12:18:38;;;;;;;;;;;35.20;47.40;;;;;;5052656;28;19912;-53
2021/09/09 12:21:52;;;;;;;;;;;36.40;48.10;;;;;;5052966;28;19913;-57
2021/09/09 12:24:56;;;;;;;;;;;37.80;47.00;;;;;;5035590;28;19917;-56
2021/09/09 12:28:14;;;;;;;;;;;41.20;45.70;;;;;;5034289;28;19909;-53
2021/09/09 12:31:32;;;;;;;;;;;43.10;43.90;;;;;;5034462;28;19917;-53
2021/09/09 12:34:37;;;;;;;;;;;45.00;43.60;;;;;;5034759;28;20390;-54
2021/09/09 12:37:41;;;;;;;;;;;46.40;42.00;;;;;;5047343;28;19938;-56
2021/09/09 12:40:46;;;;;;;;;;;47.30;41.40;;;;;;5041529;28;19913;-56
2021/09/09 12:43:53;;;;;;;;;;;43.20;40.20;;;;;;5035290;28;19909;-57
2021/09/09 12:47:13;;;;;;;;;;;42.40;42.30;;;;;;5037180;28;19909;-55
2021/09/09 12:50:34;;;;;;;;;;;39.00;44.00;;;;;;5034222;28;19917;-55
2021/09/09 12:53:39;;;;;;;;;;;38.40;44.40;;;;;;5017531;28;19917;-54
2021/09/09 12:56:46;;;;;;;;;;;38.30;44.70;;;;;;5051992;28;19913;-56
2021/09/09 12:59:50;;;;;;;;;;;37.80;44.40;;;;;;5034203;28;19909;-54
2021/09/09 13:02:54;;;;;;;;;;;39.60;45.60;;;;;;5041298;28;19909;-53
2021/09/09 13:06:00;;;;;;;;;;;41.20;44.10;;;;;;5032953;28;20383;-58
2021/09/09 13:09:04;;;;;;;;;;;42.70;43.70;;;;;;5033570;28;19909;-54
2021/09/09 13:12:09;;;;;;;;;;;43.70;42.90;;;;;;5045787;28;19924;-54
2021/09/09 13:15:13;;;;;;;;;;;43.90;42.40;;;;;;5042671;28;19909;-57
2021/09/09 13:18:17;;;;;;;;;;;44.10;42.60;;;;;;5032672;28;19913;-53
2021/09/09 13:21:28;;;;;;;;;;;44.80;41.70;;;;;;5030499;28;19913;-56
2021/09/09 13:24:34;;;;;;;;;;;45.50;41.60;;;;;;5039434;28;19909;-53
2021/09/09 13:27:39;;;;;;;;;;;45.10;41.40;;;;;;5032183;28;19913;-52
2021/09/09 13:30:44;;;;;;;;;;;44.00;41.60;;;;;;5031778;28;19908;-54
2021/09/09 13:33:50;;;;;;;;;;;44.00;41.60;;;;;;5011774;28;19909;-55
2021/09/09 13:36:55;;;;;;;;;;;43.50;42.20;;;;;;5011601;28;19917;-56
2021/09/09 13:40:00;;;;;;;;;;;44.10;42.10;;;;;;5012692;28;19932;-53
2021/09/09 13:43:05;;;;;;;;;;;43.90;41.50;;;;;;5012514;28;19917;-56
2021/09/09 13:46:10;;;;;;;;;;;43.90;41.70;;;;;;5012125;28;19917;-55
2021/09/09 13:49:14;;;;;;;;;;;43.00;41.80;;;;;;5029137;22;19926;-73
2021/09/09 13:52:20;;;;;;;;;;;43.40;41.20;;;;;;5004742;28;19909;-73
2021/09/09 13:55:24;;;;;;;;;;;41.10;41.70;;;;;;5023358;28;20108;-71
2021/09/09 13:58:28;;;;;;;;;;;39.40;42.70;;;;;;5012483;28;19909;-72
2021/09/09 14:01:34;;;;;;;;;;;39.80;43.00;;;;;;5022471;28;19909;-72
2021/09/09 14:04:40;;;;;;;;;;;40.30;43.00;;;;;;5011704;28;19909;-72
2021/09/09 14:07:46;;;;;;;;;;;39.20;43.20;;;;;;5012811;28;19913;-73
2021/09/09 14:10:51;;;;;;;;;;;39.50;43.20;;;;;;4996666;28;19909;-73
2021/09/09 14:13:56;;;;;;;;;;;39.40;43.50;;;;;;5020056;28;19909;-73
2021/09/09 14:17:00;;;;;;;;;;;39.40;43.60;;;;;;5031882;28;20199;-72
2021/09/09 14:20:05;;;;;;;;;;;39.00;43.50;;;;;;5013952;28;20232;-74
2021/09/09 14:23:09;;;;;;;;;;;36.80;44.20;;;;;;5012218;28;19910;-73
2021/09/09 14:26:16;;;;;;;;;;;36.00;45.40;;;;;;5012333;28;19909;-73
2021/09/09 14:29:19;;;;;;;;;;;35.40;45.50;;;;;;5020357;28;19909;-74
2021/09/09 14:32:23;;;;;;;;;;;35.90;46.00;;;;;;5019124;28;19913;-74
2021/09/09 14:35:27;;;;;;;;;;;36.00;45.90;;;;;;5021679;28;19913;-73
2021/09/09 14:38:32;;;;;;;;;;;35.70;45.80;;;;;;5023131;28;19912;-73
2021/09/09 14:41:38;;;;;;;;;;;35.40;46.40;;;;;;5029057;28;20287;-74
2021/09/09 14:44:42;;;;;;;;;;;35.40;47.10;;;;;;5030452;28;19909;-74
2021/09/09 14:47:46;;;;;;;;;;;35.50;46.80;;;;;;5026971;28;19917;-73
2021/09/09 14:50:51;;;;;;;;;;;35.00;47.50;;;;;;5020571;28;19909;-73
2021/09/09 14:53:56;;;;;;;;;;;33.60;48.60;;;;;;4992028;28;19910;-73
2021/09/09 14:57:01;;;;;;;;;;;32.50;50.40;;;;;;4992155;28;19913;-74
2021/09/09 15:00:06;;;;;;;;;;;32.90;49.10;;;;;;4991812;28;19910;-73
2021/09/09 15:03:11;;;;;;;;;;;33.20;49.60;;;;;;5027904;28;19913;-73
2021/09/09 15:06:16;;;;;;;;;;;32.80;50.40;;;;;;5010592;28;19913;-73
2021/09/09 15:09:21;;;;;;;;;;;31.60;50.60;;;;;;5003812;28;19913;-74
2021/09/09 15:12:27;;;;;;;;;;;31.30;51.70;;;;;;5019151;28;19989;-73
2021/09/09 15:15:31;;;;;;;;;;;31.40;51.30;;;;;;5021916;28;19909;-73
2021/09/09 15:18:36;;;;;;;;;;;31.00;50.60;;;;;;5015259;28;19909;-73
2021/09/09 15:21:40;;;;;;;;;;;30.20;50.80;;;;;;5012889;28;20360;-73
2021/09/09 15:24:44;;;;;;;;;;;30.20;51.10;;;;;;4991615;28;19914;-73
2021/09/09 15:27:49;;;;;;;;;;;30.40;51.50;;;;;;5002874;28;19909;-73
2021/09/09 15:30:54;;;;;;;;;;;30.10;53.50;;;;;;5021278;28;19917;-73
2021/09/09 15:33:58;;;;;;;;;;;30.10;54.10;;;;;;5022124;28;19913;-74
2021/09/09 15:37:02;;;;;;;;;;;30.30;55.10;;;;;;5011091;28;19914;-73
2021/09/09 15:40:07;;;;;;;;;;;29.90;54.80;;;;;;5030929;28;19909;-74
2021/09/09 15:43:11;;;;;;;;;;;30.10;55.70;;;;;;5030526;28;19910;-73
2021/09/09 15:46:15;;;;;;;;;;;30.00;55.30;;;;;;5019749;28;19917;-73
2021/09/09 15:49:19;;;;;;;;;;;29.30;56.00;;;;;;4999724;28;19913;-73
2021/09/09 15:52:23;;;;;;;;;;;29.10;56.50;;;;;;5010073;28;20276;-72
2021/09/09 15:55:27;;;;;;;;;;;29.20;55.90;;;;;;5014077;28;19913;-72
2021/09/09 15:58:32;;;;;;;;;;;29.10;56.30;;;;;;4994441;28;19924;-73
2021/09/09 16:01:37;;;;;;;;;;;29.20;55.90;;;;;;5012468;28;19917;-72
2021/09/09 16:04:40;;;;;;;;;;;29.10;56.20;;;;;;5015372;28;19909;-72
2021/09/09 16:07:45;;;;;;;;;;;28.60;56.70;;;;;;5023607;28;19913;-73
2021/09/09 16:10:49;;;;;;;;;;;28.70;57.20;;;;;;5010038;28;19909;-73
2021/09/09 16:13:53;;;;;;;;;;;28.50;57.60;;;;;;5022006;28;19913;-73
2021/09/09 16:16:58;;;;;;;;;;;28.50;57.80;;;;;;5013621;28;19924;-72
2021/09/09 16:20:02;;;;;;;;;;;28.40;57.70;;;;;;5000714;28;19909;-72
2021/09/09 16:23:08;;;;;;;;;;;28.10;57.50;;;;;;5010226;28;19909;-73
2021/09/09 16:26:12;;;;;;;;;;;28.00;58.40;;;;;;4993691;28;19910;-72
2021/09/09 16:29:16;;;;;;;;;;;28.00;58.70;;;;;;4990439;28;20353;-73
2021/09/09 16:32:20;;;;;;;;;;;28.00;59.30;;;;;;5001798;28;19914;-72
2021/09/09 16:35:24;;;;;;;;;;;27.90;60.20;;;;;;5010680;28;19909;-72
2021/09/09 16:38:28;;;;;;;;;;;27.90;60.80;;;;;;5011570;28;20183;-72
2021/09/09 16:41:33;;;;;;;;;;;27.80;61.00;;;;;;5029435;28;19909;-73
2021/09/09 16:44:37;;;;;;;;;;;27.80;61.70;;;;;;5027134;28;19912;-72
2021/09/09 16:47:41;;;;;;;;;;;27.90;62.30;;;;;;5009261;28;19910;-73
2021/09/09 16:50:44;;;;;;;;;;;28.00;62.30;;;;;;4996994;28;19909;-72
2021/09/09 16:53:49;;;;;;;;;;;27.90;63.20;;;;;;5010112;28;19910;-73
2021/09/09 16:56:53;;;;;;;;;;;28.00;63.20;;;;;;5009060;28;19917;-73
2021/09/09 16:59:57;;;;;;;;;;;27.90;64.10;;;;;;5012048;28;19909;-72
2021/09/09 17:03:01;;;;;;;;;;;27.90;63.90;;;;;;5013001;28;19909;-73
2021/09/09 17:06:06;;;;;;;;;;;28.00;64.20;;;;;;5013895;28;20280;-73
2021/09/09 17:09:10;;;;;;;;;;;28.00;64.00;;;;;;5013676;28;19913;-72
2021/09/09 17:12:15;;;;;;;;;;;27.90;64.40;;;;;;5013079;28;19920;-72
2021/09/09 17:15:19;;;;;;;;;;;27.90;64.70;;;;;;5013209;28;19909;-72
2021/09/09 17:18:23;;;;;;;;;;;27.80;64.50;;;;;;5013436;28;19917;-73
2021/09/09 17:21:27;;;;;;;;;;;27.80;64.70;;;;;;5012489;28;19909;-73
2021/09/09 17:24:32;;;;;;;;;;;27.60;65.20;;;;;;4993753;28;19910;-73
2021/09/09 17:27:37;;;;;;;;;;;27.60;65.70;;;;;;4993577;28;19933;-73
2021/09/09 17:30:41;;;;;;;;;;;27.40;65.80;;;;;;4993051;28;19910;-72
2021/09/09 17:33:46;;;;;;;;;;;27.30;66.80;;;;;;4993767;28;19913;-72
2021/09/09 17:36:50;;;;;;;;;;;27.00;68.00;;;;;;4993141;28;19918;-72
2021/09/09 17:39:55;;;;;;;;;;;26.80;69.20;;;;;;4993083;28;19914;-73
2021/09/09 17:43:00;;;;;;;;;;;26.60;70.00;;;;;;4992619;28;20334;-72
2021/09/09 17:46:04;;;;;;;;;;;26.30;70.60;;;;;;4993183;28;19913;-72
2021/09/09 17:49:09;;;;;;;;;;;26.10;71.50;;;;;;4993086;28;19914;-72
2021/09/09 17:52:13;;;;;;;;;;;25.90;72.00;;;;;;4992686;28;20369;-72
2021/09/09 17:55:19;;;;;;;;;;;25.70;72.60;;;;;;4992959;28;19910;-72
2021/09/09 17:58:23;;;;;;;;;;;25.60;72.80;;;;;;4992862;28;19918;-73